Parc Soledad, Puerto Rico
Current Conditions -  °F | °C
As of 4:50 PM on Friday 19 Dec 2014 (Local Time) from TJBQ Reporting Station
Scattered Clouds Scattered Clouds  
Wind Chill: 79°   Ceiling: Unl
Heat Index: 81°   Visibility: 10mi
Dew Point: 68°   Wind: 13mph
Humidity: 69%   Direction: 90°E
Pressure: 29.96"   Gusts: NA
Location:  18.203°N, 67.14°W
Report Text: TJBQ 192050Z 09011KT 10SM SCT030 26/20 A2996 RMK RWY08 ATIS S
Loading
Personal Weather Stations






























Interactive Weather Map New forecast layout! Learn more

10-Day Weather Forecast

Advertisements
Track Severe Weather on mobile